Time;durP1;ratioP1;P1;durP2;ratioP2;P2;SDS_P1;SDS_P2;PMS_P1;PMS_P2;Temp;Humidity;BMP_temperature;BMP_pressure;BME280_temperature;BME280_humidity;BME280_pressure;Samples;Min_cycle;Max_cycle;Signal;HPM_P1;HPM_P2
2022/04/14 00:01:01;;;;;;;6.05;3.25;;;15.50;55.50;;;15.88;47.25;97598.47;5041896;28;20325;-46
2022/04/14 00:03:29;;;;;;;7.85;3.72;;;15.50;55.30;;;15.87;47.36;97597.63;5042984;28;20045;-48
2022/04/14 00:05:57;;;;;;;6.50;3.45;;;15.50;55.20;;;15.85;47.36;97594.31;5041579;28;20057;-46
2022/04/14 00:08:25;;;;;;;7.68;3.13;;;15.50;55.50;;;15.64;48.05;97592.47;5043774;28;20335;-46
2022/04/14 00:10:53;;;;;;;6.57;3.58;;;15.30;56.00;;;15.65;47.94;97601.38;5042671;28;20049;-45
2022/04/14 00:13:21;;;;;;;7.25;3.35;;;15.30;56.10;;;15.57;48.16;97599.66;5041988;28;20045;-46
2022/04/14 00:15:49;;;;;;;5.43;3.38;;;15.30;56.10;;;15.52;48.04;97594.84;5042107;28;20049;-46
2022/04/14 00:18:17;;;;;;;12.40;3.85;;;15.20;56.20;;;15.50;48.44;97599.56;5042907;28;20321;-47
2022/04/14 00:20:46;;;;;;;8.10;4.35;;;15.20;56.50;;;15.42;48.58;97597.03;5042691;28;20059;-45
2022/04/14 00:23:13;;;;;;;7.35;3.22;;;15.10;56.80;;;15.40;48.54;97598.28;5042883;28;20339;-44
2022/04/14 00:25:41;;;;;;;5.45;2.92;;;15.10;56.70;;;15.38;48.60;97597.63;5040837;28;20053;-46
2022/04/14 00:28:09;;;;;;;11.40;4.10;;;15.10;56.80;;;15.29;48.78;97600.41;5042527;28;20055;-46
2022/04/14 00:30:38;;;;;;;7.55;3.40;;;15.00;56.90;;;15.29;48.73;97592.38;5042431;28;20041;-45
2022/04/14 00:33:06;;;;;;;8.63;3.53;;;15.00;56.90;;;15.35;48.26;97588.09;5042378;28;20037;-46
2022/04/14 00:35:34;;;;;;;8.63;3.78;;;15.00;56.50;;;15.36;48.74;97592.44;5041735;28;20041;-47
2022/04/14 00:38:01;;;;;;;5.93;3.35;;;15.10;56.90;;;15.34;48.72;97591.81;5042133;28;20041;-47
2022/04/14 00:40:29;;;;;;;4.93;3.28;;;15.00;57.00;;;15.29;48.73;97589.69;5042540;28;20059;-47
2022/04/14 00:42:57;;;;;;;7.93;4.38;;;14.90;57.20;;;15.23;48.76;97595.00;5042283;28;20056;-44
2022/04/14 00:45:25;;;;;;;6.63;3.05;;;14.90;57.60;;;15.13;49.25;97592.66;5041934;28;20049;-44
2022/04/14 00:47:54;;;;;;;7.10;3.55;;;14.80;57.70;;;14.91;50.08;97595.31;5041931;28;20242;-46
2022/04/14 00:50:22;;;;;;;7.50;3.85;;;14.70;58.50;;;14.99;49.67;97598.91;5040963;28;20355;-47
2022/04/14 00:52:50;;;;;;;4.68;3.30;;;14.70;58.00;;;14.95;49.89;97596.59;5041897;28;20075;-47
2022/04/14 00:55:17;;;;;;;10.25;4.00;;;14.70;58.40;;;14.80;50.20;97597.66;5042110;28;20052;-47
2022/04/14 00:57:45;;;;;;;7.70;4.05;;;14.60;58.60;;;14.91;50.13;97600.69;5041792;28;20049;-46
2022/04/14 01:00:14;;;;;;;11.23;4.82;;;14.70;58.30;;;15.02;49.70;97607.38;5040804;28;20053;-45
2022/04/14 01:02:44;;;;;;;7.40;4.88;;;14.80;57.70;;;15.00;50.04;97603.22;5041795;28;20046;-45
2022/04/14 01:05:13;;;;;;;5.65;4.03;;;14.80;58.40;;;15.02;49.93;97603.88;5042426;28;20061;-46
2022/04/14 01:07:44;;;;;;;9.88;3.70;;;14.80;57.90;;;14.96;50.32;97605.47;5039847;28;20049;-45
2022/04/14 01:10:13;;;;;;;7.78;4.88;;;14.80;58.60;;;14.96;50.31;97608.13;5041931;28;20051;-44
2022/04/14 01:12:41;;;;;;;6.90;4.50;;;14.70;58.90;;;14.82;51.11;97617.06;5040764;28;20324;-49
2022/04/14 01:15:15;;;;;;;5.03;3.95;;;14.60;60.50;;;14.77;51.51;97615.78;5041933;28;20365;-45
2022/04/14 01:17:43;;;;;;;9.52;4.40;;;14.50;61.00;;;14.75;51.53;97617.81;5041407;28;20236;-44
2022/04/14 01:20:13;;;;;;;6.38;4.07;;;14.50;61.30;;;14.79;51.51;97615.56;5041766;28;20219;-47
2022/04/14 01:23:00;;;;;;;7.25;5.30;;;14.50;61.00;;;14.64;53.03;97618.31;5057381;28;20347;-45
2022/04/14 01:25:28;;;;;;;10.82;4.65;;;14.50;62.70;;;14.68;52.45;97619.59;5044012;28;20045;-48
2022/04/14 01:27:56;;;;;;;10.95;4.63;;;14.40;62.50;;;14.61;53.82;97620.53;5045500;28;20347;-47
2022/04/14 01:30:24;;;;;;;8.68;5.70;;;14.30;64.10;;;14.50;53.57;97619.97;5045793;28;20047;-46
2022/04/14 01:32:52;;;;;;;9.60;5.28;;;14.30;64.50;;;14.48;53.89;97624.69;5045428;28;20041;-45
2022/04/14 01:35:22;;;;;;;12.40;5.47;;;14.20;65.00;;;14.52;53.78;97631.31;5045891;28;20255;-46
2022/04/14 01:37:50;;;;;;;9.75;5.25;;;14.30;64.50;;;14.41;54.53;97628.28;5045478;28;20351;-46
2022/04/14 01:40:19;;;;;;;12.18;5.68;;;14.20;65.70;;;14.46;54.42;97633.91;5045940;28;20049;-48
2022/04/14 01:42:47;;;;;;;8.68;5.38;;;14.20;67.60;;;14.45;54.47;97626.91;5045229;28;20054;-45
2022/04/14 01:45:14;;;;;;;9.15;5.55;;;14.20;65.70;;;14.33;55.44;97631.91;5044552;28;20053;-46
2022/04/14 01:47:44;;;;;;;7.00;5.82;;;14.20;66.40;;;14.39;54.79;97639.19;5044356;28;20216;-45
2022/04/14 01:50:14;;;;;;;9.27;5.13;;;14.20;65.80;;;14.31;55.33;97636.59;5045129;28;20052;-45
2022/04/14 01:52:44;;;;;;;8.85;5.53;;;14.20;66.30;;;14.33;54.97;97651.47;5045760;28;20393;-49
2022/04/14 01:55:13;;;;;;;7.30;4.90;;;14.10;66.20;;;14.38;54.61;97649.06;5045508;28;20076;-45
2022/04/14 01:57:41;;;;;;;8.27;5.00;;;14.20;65.20;;;14.28;55.45;97653.03;5044894;28;20053;-45
2022/04/14 02:00:10;;;;;;;11.20;5.57;;;14.20;66.30;;;14.33;54.92;97653.31;5045321;28;20041;-47
2022/04/14 02:02:39;;;;;;;8.50;5.63;;;14.20;65.70;;;14.26;55.54;97653.22;5045077;28;20064;-47
2022/04/14 02:05:08;;;;;;;10.35;5.53;;;14.10;67.10;;;14.21;55.68;97652.94;5045671;28;20049;-46
2022/04/14 02:07:36;;;;;;;6.50;5.35;;;14.00;67.20;;;14.15;56.10;97665.22;5059445;28;20377;-47
2022/04/14 02:10:05;;;;;;;10.63;6.05;;;13.90;68.20;;;14.19;56.17;97665.69;5045345;28;20052;-46
2022/04/14 02:12:34;;;;;;;9.23;5.85;;;14.00;68.50;;;14.23;55.63;97668.81;5045391;28;20053;-46
2022/04/14 02:15:02;;;;;;;8.95;6.45;;;14.00;67.50;;;14.26;56.10;97665.78;5045614;28;20057;-45
2022/04/14 02:17:30;;;;;;;12.52;6.10;;;14.10;68.40;;;14.20;56.69;97663.84;5044236;28;20072;-44
2022/04/14 02:19:58;;;;;;;10.93;5.82;;;14.00;69.10;;;14.25;56.65;97664.09;5044685;28;20075;-46
2022/04/14 02:22:26;;;;;;;9.25;5.53;;;14.10;69.60;;;14.02;58.41;97661.50;5044860;28;20060;-46
2022/04/14 02:24:55;;;;;;;9.38;6.68;;;13.80;72.20;;;14.18;57.14;97655.97;5044751;28;20057;-47
2022/04/14 02:27:24;;;;;;;11.32;7.10;;;13.90;71.00;;;14.25;57.21;97667.63;5043364;28;20046;-48
2022/04/14 02:29:52;;;;;;;12.82;8.20;;;14.00;71.00;;;14.06;58.64;97663.63;5044462;28;20051;-45
2022/04/14 02:32:20;;;;;;;14.25;9.27;;;13.90;73.10;;;14.10;59.12;97670.28;5044268;28;20054;-46
2022/04/14 02:34:48;;;;;;;12.85;6.72;;;13.90;73.90;;;14.06;58.84;97663.63;5044420;28;20071;-44
2022/04/14 02:37:15;;;;;;;17.90;7.60;;;13.90;73.20;;;14.03;59.06;97674.69;5044112;28;20056;-46
2022/04/14 02:39:43;;;;;;;17.00;8.48;;;13.80;73.80;;;13.97;59.55;97664.72;5044327;28;20052;-46
2022/04/14 02:42:11;;;;;;;15.15;9.52;;;13.80;74.70;;;13.94;59.83;97673.13;5044684;28;20248;-47
2022/04/14 02:44:39;;;;;;;12.32;9.32;;;13.70;75.60;;;14.04;59.43;97675.53;5044629;28;20059;-45
2022/04/14 02:47:08;;;;;;;12.25;9.30;;;13.80;75.10;;;13.90;61.00;97680.69;5043110;28;20059;-45
2022/04/14 02:49:36;;;;;;;15.68;9.20;;;13.80;77.90;;;13.87;60.63;97673.00;5044016;28;20259;-48
2022/04/14 02:52:05;;;;;;;14.65;11.27;;;13.70;77.90;;;13.94;61.31;97673.97;5044327;28;20041;-45
2022/04/14 02:54:37;;;;;;;14.75;9.52;;;13.80;78.80;;;13.87;61.25;97681.03;5045126;28;20059;-49
2022/04/14 02:57:30;;;;;;;15.73;9.80;;;13.70;79.10;;;13.73;62.42;97679.16;5043927;28;20037;-44
2022/04/14 02:59:58;;;;;;;15.23;11.00;;;13.60;81.10;;;13.74;61.96;97681.63;5043993;28;20045;-46
2022/04/14 03:02:26;;;;;;;19.48;11.65;;;13.60;82.60;;;13.64;63.13;97678.38;5044158;28;20243;-47
2022/04/14 03:04:54;;;;;;;15.52;11.60;;;13.50;82.80;;;13.74;62.30;97683.50;5043631;28;20051;-44
2022/04/14 03:07:22;;;;;;;19.92;11.93;;;13.50;82.80;;;13.50;64.20;97682.69;5042303;28;20067;-47
2022/04/14 03:09:50;;;;;;;22.17;13.80;;;13.40;85.50;;;13.54;63.64;97683.97;5043802;28;20356;-45
2022/04/14 03:12:18;;;;;;;18.58;13.32;;;13.40;87.00;;;13.51;63.85;97700.41;5044196;28;20172;-47
2022/04/14 03:14:47;;;;;;;20.25;15.75;;;13.40;88.50;;;13.56;64.30;97687.31;5042485;28;20053;-45
2022/04/14 03:17:15;;;;;;;21.77;14.13;;;13.40;88.20;;;13.62;63.94;97688.44;5043353;28;20049;-46
2022/04/14 03:19:43;;;;;;;19.05;14.48;;;13.50;88.30;;;13.66;64.35;97691.59;5043797;28;20055;-45
2022/04/14 03:22:11;;;;;;;17.80;12.95;;;13.60;88.40;;;13.61;64.85;97685.94;5043765;28;20049;-46
2022/04/14 03:24:39;;;;;;;21.10;14.73;;;13.50;89.90;;;13.64;64.37;97693.63;5043696;28;20055;-46
2022/04/14 03:27:07;;;;;;;20.05;14.38;;;13.50;89.90;;;13.58;64.36;97687.97;5043055;28;20250;-46
2022/04/14 03:29:34;;;;;;;23.90;15.93;;;13.40;89.90;;;13.50;65.36;97690.69;5043511;28;20251;-46
2022/04/14 03:32:02;;;;;;;19.45;14.48;;;13.40;91.50;;;13.33;66.17;97699.84;5043384;28;20041;-46
2022/04/14 03:34:30;;;;;;;20.30;13.90;;;13.20;94.80;;;13.46;64.91;97693.94;5043417;28;20045;-46
2022/04/14 03:36:59;;;;;;;20.80;16.08;;;13.30;94.10;;;13.39;65.61;97697.28;5042389;28;20055;-46
2022/04/14 03:39:30;;;;;;;17.92;14.73;;;13.30;95.90;;;13.47;64.79;97696.41;5043218;28;20041;-47
2022/04/14 03:41:58;;;;;;;24.90;15.95;;;13.30;95.50;;;13.35;65.64;97701.31;5043386;28;20057;-48
2022/04/14 03:44:26;;;;;;;21.90;16.92;;;13.20;98.10;;;13.41;65.20;97697.13;5043804;28;20059;-46
2022/04/14 03:46:53;;;;;;;25.40;16.83;;;13.30;98.10;;;13.35;66.57;97704.00;5041674;28;20050;-48
2022/04/14 03:49:22;;;;;;;28.20;17.42;;;13.20;99.90;;;13.17;67.21;97701.59;5043222;28;20363;-46
2022/04/14 03:51:54;;;;;;;25.83;19.33;;;13.10;99.90;;;13.32;66.40;97701.69;5042946;28;20045;-45
2022/04/14 03:54:22;;;;;;;28.08;19.27;;;13.10;99.90;;;13.40;66.11;97700.81;5043381;28;20056;-46
2022/04/14 03:56:50;;;;;;;24.33;17.45;;;13.20;99.90;;;13.28;66.57;97702.19;5041292;28;20054;-47
2022/04/14 03:59:18;;;;;;;28.00;18.98;;;13.10;99.90;;;13.33;65.93;97700.69;5042984;28;20051;-45
2022/04/14 04:01:45;;;;;;;31.02;21.10;;;13.10;99.90;;;13.13;66.77;97702.13;5043216;28;20057;-45
2022/04/14 04:04:14;;;;;;;32.17;20.05;;;12.90;99.90;;;13.22;66.45;97698.38;5042826;28;20049;-45
2022/04/14 04:06:41;;;;;;;29.20;21.20;;;13.00;99.90;;;13.30;66.05;97702.88;5042401;28;20059;-45
2022/04/14 04:09:09;;;;;;;28.70;20.50;;;13.00;99.90;;;13.03;68.10;97704.16;5042794;28;20063;-44
2022/04/14 04:11:37;;;;;;;28.92;21.33;;;12.90;99.90;;;13.09;67.16;97703.50;5042715;28;20169;-45
2022/04/14 04:14:06;;;;;;;30.45;20.63;;;12.80;99.90;;;13.07;67.82;97708.19;5042681;28;20050;-45
2022/04/14 04:16:34;;;;;;;32.55;22.73;;;12.80;99.90;;;13.11;66.96;97712.16;5042276;28;20336;-46
2022/04/14 04:19:02;;;;;;;36.75;21.90;;;12.90;99.90;;;13.19;66.73;97712.94;5042765;28;20060;-47
2022/04/14 04:21:30;;;;;;;33.83;21.67;;;13.00;99.90;;;13.08;67.69;97702.63;5042186;28;20045;-46
2022/04/14 04:23:58;;;;;;;31.77;22.20;;;12.90;99.90;;;13.07;67.75;97705.50;5042624;28;20053;-47
2022/04/14 04:26:26;;;;;;;29.73;21.73;;;12.80;99.90;;;13.08;67.92;97709.81;5042044;28;20045;-49
2022/04/14 04:28:54;;;;;;;28.60;21.77;;;12.80;99.90;;;13.10;67.54;97713.16;5042594;28;20049;-47
2022/04/14 04:31:21;;;;;;;32.60;22.05;;;12.90;99.90;;;13.14;67.49;97723.34;5042384;28;20055;-46
2022/04/14 04:33:51;;;;;;;38.60;24.88;;;12.90;99.90;;;13.18;67.07;97727.31;5042317;28;20049;-49
2022/04/14 04:36:19;;;;;;;41.25;25.00;;;12.90;99.90;;;13.20;67.05;97721.78;5042516;28;20056;-45
2022/04/14 04:38:47;;;;;;;31.25;23.40;;;13.00;99.90;;;13.19;67.16;97730.81;5042416;28;20155;-48
2022/04/14 04:41:14;;;;;;;34.00;22.58;;;13.00;99.90;;;13.16;67.47;97732.00;5042421;28;20051;-47
2022/04/14 04:43:42;;;;;;;32.40;22.55;;;12.90;99.90;;;13.18;67.20;97730.00;5042285;28;20339;-46
2022/04/14 04:46:10;;;;;;;35.05;24.23;;;12.90;99.90;;;13.16;67.41;97731.16;5041721;28;20060;-47
2022/04/14 04:48:38;;;;;;;35.65;23.55;;;12.90;99.90;;;13.10;67.77;97737.22;5042168;28;20049;-44
2022/04/14 04:51:06;;;;;;;33.10;23.95;;;12.90;99.90;;;13.06;67.80;97738.56;5042202;28;20057;-47
2022/04/14 04:53:34;;;;;;;36.08;24.02;;;12.80;99.90;;;12.99;68.23;97741.94;5042147;28;20047;-47
2022/04/14 04:56:01;;;;;;;35.75;23.92;;;12.70;99.90;;;13.03;67.54;97741.56;5041591;28;20051;-48
2022/04/14 04:58:30;;;;;;;33.40;23.10;;;12.70;99.90;;;13.10;67.39;97740.72;5041196;28;20056;-45
2022/04/14 05:00:58;;;;;;;32.92;23.50;;;12.80;99.90;;;13.10;67.68;97740.72;5041985;28;20045;-44
2022/04/14 05:03:26;;;;;;;34.80;22.80;;;12.90;99.90;;;13.07;68.05;97742.91;5042107;28;20049;-46
2022/04/14 05:05:54;;;;;;;33.20;22.88;;;12.90;99.90;;;13.09;67.49;97751.59;5041381;28;20055;-46
2022/04/14 05:08:21;;;;;;;32.63;22.10;;;12.80;99.90;;;12.92;69.08;97759.66;5041149;28;20053;-48
2022/04/14 05:10:49;;;;;;;31.40;22.42;;;12.70;99.90;;;13.05;67.86;97758.31;5041962;28;20056;-45
2022/04/14 05:13:17;;;;;;;37.63;23.08;;;12.80;99.90;;;12.98;68.96;97760.81;5041941;28;20033;-46
2022/04/14 05:15:45;;;;;;;32.15;22.20;;;12.80;99.90;;;12.96;68.67;97757.50;5041604;28;20045;-48
2022/04/14 05:18:13;;;;;;;33.75;23.52;;;12.70;99.90;;;12.81;69.84;97762.72;5041944;28;20041;-50
2022/04/14 05:20:42;;;;;;;32.55;21.80;;;12.60;99.90;;;12.92;69.35;97770.34;5041806;28;20059;-46
2022/04/14 05:23:10;;;;;;;30.42;22.20;;;12.70;99.90;;;12.94;68.86;97771.03;5041755;28;20050;-48
2022/04/14 05:25:41;;;;;;;34.13;22.80;;;12.70;99.90;;;12.99;68.75;97771.34;5041426;28;20053;-46
2022/04/14 05:28:09;;;;;;;32.30;22.15;;;12.80;99.90;;;13.05;68.54;97779.69;5041700;28;20339;-45
2022/04/14 05:30:38;;;;;;;30.85;22.95;;;12.80;99.90;;;12.93;69.62;97782.72;5041895;28;20151;-49
2022/04/14 05:33:10;;;;;;;31.27;21.88;;;12.80;99.90;;;13.05;68.05;97775.16;5041567;28;20049;-45
2022/04/14 05:35:39;;;;;;;33.35;21.40;;;12.80;99.90;;;13.03;68.99;97781.66;5041384;28;20335;-47
2022/04/14 05:38:07;;;;;;;33.50;22.23;;;12.80;99.90;;;13.17;68.34;97784.44;5041279;28;20055;-46
2022/04/14 05:40:35;;;;;;;33.47;23.15;;;12.90;99.90;;;13.06;69.30;97782.16;5041692;28;20045;-47
2022/04/14 05:43:03;;;;;;;36.90;21.02;;;12.90;99.90;;;12.97;69.90;97788.56;5041615;28;20049;-48
2022/04/14 05:45:32;;;;;;;29.05;21.98;;;12.80;99.90;;;13.00;69.25;97781.00;5041143;28;20055;-46
2022/04/14 05:48:00;;;;;;;31.55;22.58;;;12.90;99.90;;;13.04;69.33;97796.72;5041539;28;20055;-45
2022/04/14 05:50:28;;;;;;;32.10;21.70;;;12.90;99.90;;;13.14;69.10;97786.63;5041849;28;20272;-47
2022/04/14 05:52:56;;;;;;;32.10;22.33;;;12.90;99.90;;;13.12;69.19;97784.13;5041962;28;20052;-46
2022/04/14 05:55:24;;;;;;;28.42;21.73;;;12.90;99.90;;;13.15;69.06;97791.81;5041164;28;20045;-47
2022/04/14 05:57:52;;;;;;;33.88;22.73;;;13.00;99.90;;;13.14;69.53;97790.16;5041605;28;20059;-47
2022/04/14 06:00:20;;;;;;;35.28;22.17;;;13.00;99.90;;;13.11;69.68;97798.53;5041498;28;20173;-48
2022/04/14 06:02:48;;;;;;;29.30;20.70;;;13.00;99.90;;;13.08;69.91;97793.50;5041302;28;20056;-46
2022/04/14 06:05:16;;;;;;;29.85;22.27;;;12.90;99.90;;;13.08;69.98;97801.53;5041981;28;20244;-47
2022/04/14 06:07:44;;;;;;;32.80;21.33;;;13.00;99.90;;;13.03;70.36;97808.38;5041240;28;20056;-48
2022/04/14 06:10:16;;;;;;;32.35;21.48;;;13.00;99.90;;;13.00;70.66;97806.91;5040213;28;20059;-45
2022/04/14 06:12:44;;;;;;;26.73;21.48;;;12.90;99.90;;;12.97;70.89;97808.09;5045114;28;20050;-49
2022/04/14 06:15:13;;;;;;;31.85;20.70;;;12.90;99.90;;;13.09;70.15;97810.41;5045168;28;20235;-46
2022/04/14 06:17:44;;;;;;;26.30;20.70;;;13.00;99.90;;;13.23;69.56;97808.84;5044478;28;20050;-47
2022/04/14 06:20:13;;;;;;;29.92;21.65;;;13.20;99.90;;;13.29;69.70;97816.97;5045059;28;20045;-47
2022/04/14 06:22:43;;;;;;;32.72;25.35;;;13.20;99.90;;;13.30;69.55;97812.50;5043816;28;20053;-47
2022/04/14 06:25:13;;;;;;;34.55;21.90;;;13.30;99.90;;;13.35;69.80;97816.31;5044752;28;20251;-47
2022/04/14 06:27:46;;;;;;;28.33;20.15;;;13.30;99.90;;;13.44;69.34;97821.63;5044414;28;20071;-50
2022/04/14 06:30:16;;;;;;;32.63;21.15;;;13.40;99.90;;;13.48;69.32;97814.94;5043535;28;20053;-48
2022/04/14 06:33:04;;;;;;;29.83;20.25;;;13.40;99.90;;;13.51;69.25;97817.22;5044575;28;20034;-46
2022/04/14 06:35:33;;;;;;;26.73;19.80;;;13.50;99.90;;;13.57;69.25;97820.06;5044266;28;20136;-47
2022/04/14 06:38:01;;;;;;;25.55;19.98;;;13.50;99.90;;;13.67;68.76;97819.81;5043413;28;20064;-47
2022/04/14 06:40:29;;;;;;;27.45;20.00;;;13.60;99.90;;;13.58;69.24;97827.06;5044314;28;20041;-47
2022/04/14 06:43:01;;;;;;;28.50;19.88;;;13.60;99.90;;;13.60;69.06;97824.22;5044380;28;20053;-47
2022/04/14 06:45:31;;;;;;;28.65;20.48;;;13.60;99.90;;;13.57;68.95;97820.06;5044014;28;20051;-49
2022/04/14 06:47:59;;;;;;;30.48;20.88;;;13.50;99.90;;;13.70;68.66;97816.78;5043052;28;20049;-46
2022/04/14 06:50:27;;;;;;;30.35;21.80;;;13.60;99.90;;;13.68;68.97;97824.16;5042901;28;20343;-49
2022/04/14 06:52:55;;;;;;;35.38;21.17;;;13.70;99.90;;;13.80;68.45;97819.22;5044205;28;20042;-45
2022/04/14 06:55:23;;;;;;;26.35;21.08;;;13.70;99.90;;;13.74;68.70;97818.09;5044057;28;20047;-46
2022/04/14 06:57:51;;;;;;;25.52;19.08;;;13.70;99.90;;;13.61;69.06;97819.69;5044121;28;20056;-48
2022/04/14 07:00:22;;;;;;;29.52;19.92;;;13.60;99.90;;;13.68;69.04;97828.69;5044207;28;20049;-46
2022/04/14 07:02:54;;;;;;;25.50;19.80;;;13.70;99.90;;;13.73;68.94;97827.16;5043948;28;20045;-46
2022/04/14 07:05:23;;;;;;;28.42;19.80;;;13.70;99.90;;;13.79;68.96;97826.44;5044825;28;20064;-45
2022/04/14 07:07:51;;;;;;;27.83;19.35;;;13.80;99.90;;;13.74;69.08;97828.78;5043640;28;20061;-47
2022/04/14 07:10:19;;;;;;;27.05;18.15;;;13.80;99.90;;;13.81;68.71;97828.09;5044077;28;20049;-48
2022/04/14 07:12:47;;;;;;;24.98;18.98;;;13.80;99.90;;;13.92;68.39;97838.38;5044258;28;20052;-46
2022/04/14 07:15:15;;;;;;;28.35;19.35;;;13.90;99.90;;;13.98;68.09;97841.19;5044398;28;20050;-45
2022/04/14 07:17:44;;;;;;;26.52;20.02;;;14.00;99.90;;;14.03;67.97;97837.97;5043574;28;20054;-45
2022/04/14 07:20:12;;;;;;;26.88;19.10;;;14.00;99.90;;;13.98;67.99;97835.84;5044307;28;20051;-46
2022/04/14 07:22:49;;;;;;;27.73;18.92;;;13.90;99.90;;;13.98;68.07;97846.56;5043154;28;20037;-46
2022/04/14 07:25:24;;;;;;;28.27;17.20;;;14.00;99.90;;;13.95;67.95;97849.56;5042451;28;20247;-46
2022/04/14 07:27:53;;;;;;;24.55;18.65;;;14.00;99.90;;;14.02;67.89;97857.75;5043453;28;20057;-50
2022/04/14 07:30:23;;;;;;;24.45;17.15;;;14.00;99.90;;;13.90;68.34;97853.78;5043471;28;20045;-45
2022/04/14 07:32:52;;;;;;;24.42;17.30;;;14.00;99.90;;;13.88;68.23;97861.16;5043512;28;20344;-45
2022/04/14 07:35:22;;;;;;;33.70;23.02;;;14.00;99.90;;;14.01;68.18;97863.25;5043262;28;20041;-47
2022/04/14 07:37:50;;;;;;;26.67;18.20;;;14.10;99.90;;;14.14;67.86;97866.19;5043204;28;20067;-46
2022/04/14 07:40:19;;;;;;;25.55;18.65;;;14.20;99.90;;;14.13;67.86;97854.66;5043856;28;20045;-48
2022/04/14 07:42:49;;;;;;;25.50;20.35;;;14.30;99.90;;;14.22;67.94;97860.75;5042074;28;20045;-49
2022/04/14 07:45:18;;;;;;;29.25;18.98;;;14.30;99.90;;;14.09;67.99;97864.03;5042243;28;20055;-44
2022/04/14 07:47:46;;;;;;;24.23;17.95;;;14.30;99.90;;;14.08;67.87;97866.91;5041907;28;20045;-45
2022/04/14 07:50:19;;;;;;;25.00;18.80;;;14.20;99.90;;;14.13;67.63;97865.38;5042913;28;20041;-45
2022/04/14 07:52:50;;;;;;;26.38;17.13;;;14.30;99.90;;;14.06;67.89;97864.41;5043331;28;20053;-46
2022/04/14 07:55:30;;;;;;;24.60;17.50;;;14.20;99.90;;;14.06;68.24;97871.59;5043435;28;20346;-46
2022/04/14 07:58:07;;;;;;;24.13;17.52;;;14.30;99.90;;;14.24;67.77;97865.94;5041937;28;20045;-45
2022/04/14 08:00:38;;;;;;;23.40;17.83;;;14.30;99.90;;;14.23;68.02;97873.16;5043142;28;20059;-46
2022/04/14 08:03:07;;;;;;;26.80;17.10;;;14.40;99.90;;;14.24;68.24;97874.81;5043760;28;20060;-46
2022/04/14 08:05:46;;;;;;;27.25;19.10;;;14.40;99.90;;;14.26;67.83;97875.47;5042604;28;20049;-48
2022/04/14 08:08:20;;;;;;;24.80;19.55;;;14.40;99.90;;;14.39;67.46;97877.53;5043210;28;20045;-45
2022/04/14 08:10:49;;;;;;;23.67;16.77;;;14.50;99.90;;;14.38;67.42;97878.53;5042753;28;20049;-46
2022/04/14 08:13:18;;;;;;;24.30;18.58;;;14.60;99.90;;;14.35;67.14;97876.25;5042718;28;20057;-45
2022/04/14 08:15:46;;;;;;;22.58;17.85;;;14.50;99.90;;;14.54;66.67;97878.44;5042305;28;20225;-44
2022/04/14 08:18:14;;;;;;;25.80;18.63;;;14.60;99.90;;;14.40;67.00;97873.84;5042702;28;20045;-44
2022/04/14 08:20:42;;;;;;;21.05;15.93;;;14.60;99.90;;;14.64;66.77;97886.25;5042359;28;20246;-44
2022/04/14 08:23:12;;;;;;;23.50;17.17;;;14.70;99.90;;;14.69;66.54;97877.66;5042493;28;20045;-47
2022/04/14 08:25:41;;;;;;;23.08;16.60;;;14.70;99.90;;;14.74;66.46;97883.31;5042189;28;20256;-47
2022/04/14 08:28:25;;;;;;;22.23;17.20;;;14.80;99.90;;;14.86;66.15;97883.69;5041601;28;20243;-46
2022/04/14 08:30:54;;;;;;;21.23;17.15;;;14.90;99.90;;;14.85;65.86;97884.69;5042530;28;20056;-46
2022/04/14 08:33:24;;;;;;;26.30;17.77;;;14.90;99.90;;;14.76;65.95;97887.47;5041740;28;20055;-48
2022/04/14 08:35:54;;;;;;;21.00;17.27;;;14.90;99.90;;;14.85;65.64;97882.00;5041829;28;20048;-47
2022/04/14 08:38:22;;;;;;;24.77;18.67;;;14.90;99.90;;;14.96;65.56;97884.25;5042185;28;20042;-46
2022/04/14 08:41:00;;;;;;;22.42;17.55;;;15.00;99.90;;;15.01;65.35;97884.53;5042327;28;20251;-45
2022/04/14 08:44:00;;;;;;;25.35;17.48;;;15.10;99.90;;;15.05;65.43;97885.84;5042096;28;20049;-45
2022/04/14 08:46:29;;;;;;;23.52;17.83;;;15.10;99.90;;;15.00;65.36;97882.03;5039912;28;20057;-45
2022/04/14 08:49:02;;;;;;;25.33;18.25;;;15.10;99.90;;;14.86;65.85;97879.16;5042131;28;20339;-47
2022/04/14 08:51:33;;;;;;;25.27;16.90;;;15.00;99.90;;;15.04;65.63;97875.28;5042154;28;20049;-47
2022/04/14 08:54:03;;;;;;;25.65;18.08;;;15.10;99.90;;;14.96;66.19;97885.06;5042028;28;20091;-45
2022/04/14 08:56:32;;;;;;;25.98;17.77;;;15.10;99.90;;;15.05;65.70;97882.34;5041712;28;20064;-49
2022/04/14 08:59:00;;;;;;;20.75;16.65;;;15.20;99.90;;;15.16;65.45;97890.75;5042371;28;20049;-46
2022/04/14 09:01:28;;;;;;;21.67;18.08;;;15.30;99.90;;;15.11;65.16;97887.78;5041081;28;20060;-45
2022/04/14 09:03:58;;;;;;;19.67;14.85;;;15.30;99.90;;;15.19;65.17;97889.53;5042057;28;20065;-47
2022/04/14 09:06:29;;;;;;;23.88;16.52;;;15.30;99.90;;;15.30;65.30;97894.44;5041498;28;20053;-46
2022/04/14 09:08:59;;;;;;;26.27;19.85;;;15.50;99.90;;;15.32;64.99;97892.41;5041908;28;20049;-46
2022/04/14 09:11:30;;;;;;;23.10;17.08;;;15.50;99.90;;;15.35;64.90;97894.75;5042121;28;20238;-47
2022/04/14 09:14:00;;;;;;;21.10;15.93;;;15.60;99.90;;;15.42;64.64;97892.13;5041715;28;20350;-45
2022/04/14 09:16:33;;;;;;;27.00;17.08;;;15.60;99.90;;;15.54;64.44;97896.00;5040288;28;20042;-45
2022/04/14 09:19:03;;;;;;;23.10;17.17;;;15.70;99.90;;;15.54;64.36;97893.31;5042936;28;20045;-46
2022/04/14 09:21:32;;;;;;;29.33;17.25;;;15.70;99.90;;;15.66;64.38;97892.84;5041859;28;20049;-46
2022/04/14 09:24:00;;;;;;;27.10;17.13;;;15.80;99.90;;;15.77;64.03;97895.06;5040289;28;20236;-45
2022/04/14 09:26:28;;;;;;;23.88;17.10;;;16.00;99.90;;;15.87;63.74;97898.28;5041512;28;20049;-46
2022/04/14 09:29:10;;;;;;;24.25;17.65;;;16.00;99.90;;;15.98;63.47;97890.78;5024445;28;20052;-45
2022/04/14 09:31:50;;;;;;;21.52;15.65;;;16.10;99.90;;;15.95;62.99;97897.34;5041085;28;20246;-45
2022/04/14 09:34:51;;;;;;;23.58;17.50;;;16.20;99.90;;;15.96;63.20;97896.34;5041817;28;20037;-47
2022/04/14 09:37:20;;;;;;;27.33;17.85;;;16.10;99.90;;;15.93;62.71;97891.34;5041148;28;20044;-46
2022/04/14 09:40:02;;;;;;;24.77;17.60;;;16.10;99.90;;;16.06;62.75;97887.97;5041683;28;20053;-45
2022/04/14 09:42:34;;;;;;;20.58;16.08;;;16.20;99.90;;;16.07;62.82;97893.16;5042407;28;20340;-47
2022/04/14 09:45:19;;;;;;;22.33;16.92;;;16.20;99.90;;;16.08;62.78;97900.19;5043300;28;20053;-46
2022/04/14 09:48:09;;;;;;;20.30;16.17;;;16.30;99.90;;;16.07;62.96;97897.69;5044214;28;20219;-45
2022/04/14 09:50:39;;;;;;;20.88;17.77;;;16.30;99.90;;;16.23;62.62;97892.09;5045330;28;20237;-47
2022/04/14 09:53:15;;;;;;;19.33;16.30;;;16.40;99.90;;;16.33;62.23;97891.75;5045577;28;20374;-45
2022/04/14 09:55:56;;;;;;;25.15;16.95;;;16.50;99.90;;;16.40;61.98;97883.75;5045030;28;20047;-48
2022/04/14 09:58:26;;;;;;;21.77;16.23;;;16.60;99.90;;;16.36;61.60;97887.84;5045051;28;20240;-47
2022/04/14 10:00:58;;;;;;;22.65;15.98;;;16.60;99.50;;;16.45;61.05;97902.81;5045043;28;20046;-47
2022/04/14 10:03:30;;;;;;;19.65;14.88;;;16.70;97.30;;;16.51;61.40;97881.38;5045425;28;20343;-48
2022/04/14 10:06:05;;;;;;;22.95;15.90;;;16.70;97.60;;;16.55;61.28;97879.13;5044822;28;20049;-48
2022/04/14 10:08:51;;;;;;;25.83;16.75;;;16.70;98.40;;;16.60;61.46;97878.56;5044170;28;20049;-45
2022/04/14 10:11:29;;;;;;;27.13;17.05;;;16.80;97.90;;;16.67;61.12;97882.13;5045328;28;20053;-47
2022/04/14 10:14:12;;;;;;;21.17;16.85;;;16.90;97.00;;;16.61;61.00;97875.66;5045016;28;20055;-47
2022/04/14 10:16:41;;;;;;;20.10;16.48;;;16.90;95.90;;;16.66;61.05;97875.94;5045144;28;20051;-46
2022/04/14 10:19:09;;;;;;;20.13;15.65;;;16.90;95.30;;;16.76;61.10;97872.91;5045125;28;20045;-47
2022/04/14 10:21:37;;;;;;;22.63;15.82;;;16.90;96.70;;;16.73;60.31;97876.00;5044844;28;20284;-46